Aviation Digital Data Service (ADDS)

Output produced by METARs form (1010 UTC 13 August 2022)
found at http://www.aviationweather.gov/metar/data/
 
Forecast for: RJSA (AOMORI AIRPORT , JP)
Text: TAF RJSA 130505Z 1306/1412 27005KT 9999 FEW020 SCT030
Forecast period: 0600 to 2100 UTC 13 August 2022
Forecast type: FROM: standard forecast or significant change
Winds: from the W (270 degrees) at 6 MPH (5 knots; 2.6 m/s)
Visibility: 6 or more miles (10+ km)
Ceiling: at least 12,000 feet AGL
Clouds: few clouds at 2000 feet AGL
scattered clouds at 3000 feet AGL
Weather: no significant weather forecast for this period
Text: BECMG 1321/1400 02005KT
Forecast period: 2100 UTC 13 August 2022 to 0900 UTC 14 August 2022
Forecast type: BECOMING: Conditions expected to become as follows by 0000 UTC 14 August 2022
Winds: from the NNE (20 degrees) at 6 MPH (5 knots; 2.6 m/s)
Visibility: 6 or more miles (10+ km)
Ceiling: at least 12,000 feet AGL
Clouds: few clouds at 2000 feet AGL
scattered clouds at 3000 feet AGL
Weather: no significant weather forecast for this period
Text: BECMG 1409/1412 24004KT
Forecast period: 0900 to 1200 UTC 14 August 2022
Forecast type: BECOMING: Conditions expected to become as follows by 1200 UTC 14 August 2022
Winds: from the WSW (240 degrees) at 5 MPH (4 knots; 2.1 m/s)
Visibility: 6 or more miles (10+ km)
Ceiling: at least 12,000 feet AGL
Clouds: few clouds at 2000 feet AGL
scattered clouds at 3000 feet AGL
Weather: no significant weather forecast for this period